createdAt,value
2022-07-28T00:02:45.758Z,2.88
2022-07-28T00:07:46.526Z,9.95
2022-07-28T00:12:48.531Z,9.07
2022-07-28T00:17:49.120Z,3.00
2022-07-28T00:22:49.753Z,3.00
2022-07-28T00:27:51.660Z,3.60
2022-07-28T00:32:52.266Z,10.23
2022-07-28T00:37:52.852Z,2.88
2022-07-28T00:42:54.795Z,5.90
2022-07-28T00:47:55.382Z,4.97
2022-07-28T00:52:56.687Z,4.10
2022-07-28T00:57:58.979Z,5.43
2022-07-28T01:03:00.303Z,3.20
2022-07-28T01:08:04.951Z,8.45
2022-07-28T01:13:12.408Z,5.15
2022-07-28T01:18:18.610Z,7.10
2022-07-28T01:23:51.802Z,2.85
2022-07-28T01:29:02.259Z,3.83
2022-07-28T01:34:11.788Z,4.32
2022-07-28T01:39:15.080Z,6.38
2022-07-28T01:44:19.799Z,6.60
2022-07-28T01:49:23.932Z,12.32
2022-07-28T01:54:28.433Z,5.32
2022-07-28T01:59:31.966Z,5.43
2022-07-28T02:04:37.285Z,7.75
2022-07-28T02:09:40.123Z,10.85
2022-07-28T02:14:42.334Z,6.13
2022-07-28T02:19:47.079Z,4.00
2022-07-28T02:24:49.165Z,6.13
2022-07-28T02:29:53.917Z,11.45
2022-07-28T02:34:59.314Z,5.95
2022-07-28T02:40:01.409Z,4.82
2022-07-28T02:45:05.342Z,4.85
2022-07-28T02:50:08.627Z,3.60
2022-07-28T02:55:11.382Z,10.35
2022-07-28T03:00:13.834Z,7.65
2022-07-28T03:05:17.379Z,5.60
2022-07-28T03:10:34.091Z,5.38
2022-07-28T03:15:36.610Z,6.65
2022-07-28T03:20:38.669Z,4.53
2022-07-28T03:25:44.804Z,9.50
2022-07-28T03:30:51.499Z,9.82
2022-07-28T03:35:56.015Z,7.50
2022-07-28T03:40:58.732Z,9.15
2022-07-28T03:45:59.327Z,9.50
2022-07-28T03:51:01.348Z,7.32
2022-07-28T03:56:03.354Z,5.68
2022-07-28T04:01:04.792Z,6.97
2022-07-28T04:06:06.903Z,5.80
2022-07-28T04:11:07.580Z,13.82
2022-07-28T04:16:08.294Z,7.68
2022-07-28T04:21:10.331Z,8.68
2022-07-28T04:26:10.950Z,6.50
2022-07-28T04:31:11.652Z,8.35
2022-07-28T04:36:13.706Z,7.43
2022-07-28T04:41:14.406Z,5.45
2022-07-28T04:46:15.493Z,6.45
2022-07-28T04:51:17.757Z,15.13
2022-07-28T04:56:18.415Z,11.40
2022-07-28T05:01:21.615Z,7.28
2022-07-28T05:06:23.702Z,7.07
2022-07-28T05:11:24.375Z,9.10
2022-07-28T05:16:25.051Z,7.15
2022-07-28T05:21:28.286Z,9.60
2022-07-28T05:26:30.990Z,15.73
2022-07-28T05:31:31.658Z,10.80
2022-07-28T05:36:33.976Z,19.58
2022-07-28T05:41:34.610Z,12.48
2022-07-28T05:46:35.723Z,14.73
2022-07-28T05:51:41.698Z,14.30
2022-07-28T05:56:45.863Z,15.38
2022-07-28T06:01:49.103Z,17.20
2022-07-28T06:06:51.081Z,14.23
2022-07-28T06:11:51.707Z,18.23
2022-07-28T06:16:52.340Z,15.20
2022-07-28T06:21:54.290Z,12.07
2022-07-28T06:26:55.549Z,15.50
2022-07-28T06:31:56.538Z,9.65
2022-07-28T06:36:58.902Z,7.15
2022-07-28T06:42:00.193Z,10.57
2022-07-28T06:47:00.847Z,8.40
2022-07-28T06:52:02.893Z,13.85
2022-07-28T06:57:04.037Z,10.00
2022-07-28T07:02:04.643Z,10.77
2022-07-28T07:07:14.998Z,9.65
2022-07-28T07:12:17.834Z,12.23
2022-07-28T07:17:18.480Z,9.95
2022-07-28T07:22:20.482Z,9.10
2022-07-28T07:27:21.092Z,10.07
2022-07-28T07:32:21.729Z,9.75
2022-07-28T07:37:24.747Z,11.32
2022-07-28T07:42:25.346Z,15.40
2022-07-28T07:47:26.098Z,13.32
2022-07-28T07:52:28.015Z,9.52
2022-07-28T07:57:29.782Z,14.07
2022-07-28T08:02:30.512Z,10.82
2022-07-28T08:07:32.493Z,10.10
2022-07-28T08:12:33.647Z,13.15
2022-07-28T08:17:34.415Z,11.05
2022-07-28T08:22:47.365Z,14.50
2022-07-28T08:27:48.149Z,9.18
2022-07-28T08:32:56.524Z,8.00
2022-07-28T08:37:59.212Z,10.88
2022-07-28T08:43:10.197Z,9.18
2022-07-28T08:48:12.634Z,7.30
2022-07-28T08:53:15.967Z,6.60
2022-07-28T08:58:18.070Z,5.13
2022-07-28T09:03:18.909Z,6.45
2022-07-28T09:08:21.430Z,5.95
2022-07-28T09:13:22.347Z,6.05
2022-07-28T09:18:23.129Z,8.25
2022-07-28T09:23:43.434Z,6.88
2022-07-28T09:28:50.379Z,5.43
2022-07-28T09:33:55.819Z,4.60
2022-07-28T09:38:59.089Z,3.97
2022-07-28T09:43:59.798Z,5.30
2022-07-28T09:49:02.299Z,5.45
2022-07-28T09:54:12.523Z,5.05
2022-07-28T09:59:14.549Z,4.07
2022-07-28T10:04:16.059Z,3.30
2022-07-28T10:09:27.574Z,5.03
2022-07-28T10:14:33.526Z,6.35
2022-07-28T10:19:34.173Z,4.00
2022-07-28T10:24:38.704Z,2.17
2022-07-28T10:29:41.394Z,4.47
2022-07-28T10:34:49.877Z,2.95
2022-07-28T10:39:57.422Z,2.63
2022-07-28T10:44:59.103Z,3.15
2022-07-28T10:49:59.765Z,4.70
2022-07-28T10:55:09.273Z,2.20
2022-07-28T11:00:24.483Z,6.10
2022-07-28T11:05:36.408Z,5.35
2022-07-28T11:10:49.574Z,2.08
2022-07-28T11:15:50.601Z,2.30
2022-07-28T11:21:10.788Z,3.70
2022-07-28T11:26:37.622Z,3.95
2022-07-28T11:32:04.230Z,6.38
2022-07-28T11:37:06.634Z,4.07
2022-07-28T11:42:26.592Z,3.15
2022-07-28T11:47:28.580Z,5.65
2022-07-28T11:52:29.359Z,5.18
2022-07-28T11:57:31.614Z,3.33
2022-07-28T12:02:34.282Z,6.03
2022-07-28T12:07:39.398Z,4.03
2022-07-28T12:12:41.377Z,4.15
2022-07-28T12:17:42.449Z,4.82
2022-07-28T12:22:54.872Z,3.70
2022-07-28T12:27:58.330Z,3.10
2022-07-28T12:33:17.255Z,4.18
2022-07-28T12:38:18.285Z,3.90
2022-07-28T12:43:26.215Z,4.68
2022-07-28T12:48:26.955Z,1.90
2022-07-28T12:53:27.584Z,6.13
2022-07-28T12:58:29.651Z,1.98
2022-07-28T13:03:31.439Z,9.57
2022-07-28T13:08:44.267Z,5.25
2022-07-28T13:13:48.102Z,4.38
2022-07-28T13:18:51.378Z,2.65
2022-07-28T13:23:52.486Z,3.45
2022-07-28T13:29:01.985Z,7.00
2022-07-28T13:34:02.977Z,2.35
2022-07-28T13:39:04.307Z,2.33
2022-07-28T13:44:06.721Z,6.15
2022-07-28T13:49:07.439Z,2.55
2022-07-28T13:54:08.173Z,4.03
2022-07-28T13:59:10.921Z,8.07
2022-07-28T14:04:17.263Z,3.92
2022-07-28T14:09:21.286Z,6.88
2022-07-28T14:14:25.263Z,3.08
2022-07-28T14:19:38.933Z,5.93
2022-07-28T14:24:40.585Z,5.47
2022-07-28T14:29:43.294Z,6.07
2022-07-28T14:34:43.985Z,3.95
2022-07-28T14:39:45.689Z,4.70
2022-07-28T14:44:47.838Z,5.10
2022-07-28T14:49:58.246Z,5.10
2022-07-28T14:54:59.187Z,6.43
2022-07-28T15:00:01.184Z,5.05
2022-07-28T15:05:01.848Z,3.92
2022-07-28T15:10:02.928Z,2.10
2022-07-28T15:15:05.814Z,2.40
2022-07-28T15:20:07.633Z,7.85
2022-07-28T15:25:09.274Z,7.97
2022-07-28T15:30:13.009Z,4.70
2022-07-28T15:35:14.127Z,6.63
2022-07-28T15:40:14.730Z,2.58
2022-07-28T15:45:16.814Z,4.28
2022-07-28T15:50:17.678Z,2.75
2022-07-28T15:55:18.502Z,4.00
2022-07-28T16:00:20.888Z,3.22
2022-07-28T16:05:22.463Z,2.63
2022-07-28T16:10:23.476Z,4.95
2022-07-28T16:15:27.065Z,3.30
2022-07-28T16:20:27.823Z,4.38
2022-07-28T16:25:28.606Z,5.50
2022-07-28T16:30:33.445Z,6.65
2022-07-28T16:35:34.061Z,3.65
2022-07-28T16:40:34.936Z,4.20
2022-07-28T16:45:37.088Z,6.00
2022-07-28T16:50:38.419Z,4.85
2022-07-28T16:55:40.130Z,4.43
2022-07-28T17:00:42.255Z,6.05
2022-07-28T17:05:42.867Z,2.65
2022-07-28T17:10:44.843Z,6.63
2022-07-28T17:15:46.829Z,4.03
2022-07-28T17:20:47.794Z,2.40
2022-07-28T17:26:29.682Z,4.03
2022-07-28T17:31:10.426Z,4.57
2022-07-28T17:36:11.140Z,9.18
2022-07-28T17:41:11.788Z,2.88
2022-07-28T17:46:13.857Z,6.63
2022-07-28T17:51:14.730Z,4.15
2022-07-28T17:56:15.501Z,2.92
2022-07-28T18:01:18.151Z,3.78
2022-07-28T18:06:18.812Z,6.78
2022-07-28T18:11:20.728Z,2.00
2022-07-28T18:16:23.255Z,5.18
2022-07-28T18:21:23.915Z,3.17
2022-07-28T18:26:24.584Z,3.25
2022-07-28T18:31:26.581Z,8.55
2022-07-28T18:36:27.407Z,4.38
2022-07-28T18:41:28.995Z,7.00
2022-07-28T18:46:36.780Z,3.45
2022-07-28T18:51:37.460Z,4.60
2022-07-28T18:56:38.070Z,5.18
2022-07-28T19:01:40.109Z,4.55
2022-07-28T19:06:40.954Z,7.53
2022-07-28T19:11:46.011Z,5.35
2022-07-28T19:16:48.597Z,2.97
2022-07-28T19:21:49.275Z,4.72
2022-07-28T19:26:51.554Z,3.95
2022-07-28T19:31:53.547Z,3.17
2022-07-28T19:36:54.799Z,5.13
2022-07-28T19:41:55.425Z,3.70
2022-07-28T19:46:57.677Z,3.63
2022-07-28T19:51:58.341Z,4.20
2022-07-28T19:57:00.136Z,4.30
2022-07-28T20:02:02.528Z,3.20
2022-07-28T20:07:03.126Z,7.07
2022-07-28T20:12:03.745Z,4.60
2022-07-28T20:17:05.877Z,7.80
2022-07-28T20:22:07.874Z,7.65
2022-07-28T20:27:08.473Z,6.28
2022-07-28T20:32:10.507Z,5.63
2022-07-28T20:37:19.108Z,3.78
2022-07-28T20:42:31.760Z,9.95
2022-07-28T20:47:34.378Z,3.70
2022-07-28T20:52:35.060Z,4.90
2022-07-28T20:57:36.191Z,4.07
2022-07-28T21:02:38.234Z,2.85
2022-07-28T21:08:05.157Z,3.60
2022-07-28T21:12:59.557Z,9.95
2022-07-28T21:18:01.582Z,4.90
2022-07-28T21:23:02.706Z,4.63
2022-07-28T21:28:21.043Z,4.30
2022-07-28T21:33:23.371Z,4.70
2022-07-28T21:38:24.083Z,4.13
2022-07-28T21:43:24.677Z,3.88
2022-07-28T21:48:26.648Z,3.45
2022-07-28T21:53:27.273Z,6.47
2022-07-28T21:58:27.888Z,3.17
2022-07-28T22:03:29.838Z,3.03
2022-07-28T22:08:30.454Z,6.43
2022-07-28T22:13:31.205Z,5.65
2022-07-28T22:18:33.178Z,5.20
2022-07-28T22:23:33.786Z,5.45
2022-07-28T22:28:34.453Z,1.92
2022-07-28T22:33:36.370Z,3.55
2022-07-28T22:38:38.221Z,4.60
2022-07-28T22:43:38.888Z,2.85
2022-07-28T22:48:40.963Z,5.97
2022-07-28T22:53:42.139Z,2.67
2022-07-28T22:58:42.784Z,7.25
2022-07-28T23:03:45.067Z,4.35
2022-07-28T23:08:48.023Z,6.93
2022-07-28T23:13:48.630Z,2.95
2022-07-28T23:18:50.552Z,3.58
2022-07-28T23:23:51.183Z,4.28
2022-07-28T23:28:51.780Z,2.72
2022-07-28T23:33:54.295Z,5.40
2022-07-28T23:38:58.515Z,3.53
2022-07-28T23:43:59.261Z,4.05
2022-07-28T23:49:01.386Z,6.13
2022-07-28T23:54:02.075Z,9.10
2022-07-28T23:59:02.748Z,9.30
